createdAt,value
2023-01-11T00:00:30.257Z,5.07
2023-01-11T00:03:02.363Z,5.28
2023-01-11T00:05:29.659Z,4.80
2023-01-11T00:07:57.320Z,4.72
2023-01-11T00:10:24.603Z,4.65
2023-01-11T00:12:51.854Z,4.75
2023-01-11T00:15:19.048Z,4.65
2023-01-11T00:17:46.528Z,4.88
2023-01-11T00:20:13.747Z,5.05
2023-01-11T00:22:40.998Z,4.80
2023-01-11T00:25:08.372Z,5.07
2023-01-11T00:27:35.630Z,4.65
2023-01-11T00:30:02.848Z,4.90
2023-01-11T00:32:30.101Z,4.85
2023-01-11T00:34:57.444Z,5.13
2023-01-11T00:37:24.654Z,5.13
2023-01-11T00:39:52.461Z,4.70
2023-01-11T00:42:38.241Z,5.07
2023-01-11T00:45:24.645Z,4.45
2023-01-11T00:47:58.007Z,5.10
2023-01-11T00:50:26.026Z,4.88
2023-01-11T00:52:53.306Z,4.68
2023-01-11T00:55:20.587Z,4.55
2023-01-11T00:57:47.775Z,4.43
2023-01-11T01:00:15.160Z,4.63
2023-01-11T01:02:42.539Z,4.63
2023-01-11T01:05:10.101Z,4.45
2023-01-11T01:07:37.832Z,4.90
2023-01-11T01:10:05.491Z,4.40
2023-01-11T01:12:51.369Z,4.40
2023-01-11T01:15:18.698Z,3.80
2023-01-11T01:17:46.421Z,4.22
2023-01-11T01:20:14.794Z,3.85
2023-01-11T01:22:42.714Z,3.95
2023-01-11T01:25:10.201Z,3.55
2023-01-11T01:27:37.541Z,3.50
2023-01-11T01:30:06.105Z,3.38
2023-01-11T01:32:33.389Z,3.53
2023-01-11T01:35:00.642Z,3.33
2023-01-11T01:37:28.017Z,3.40
2023-01-11T01:39:55.323Z,3.42
2023-01-11T01:42:24.139Z,3.15
2023-01-11T01:45:00.655Z,3.20
2023-01-11T01:47:30.545Z,2.88
2023-01-11T01:49:59.581Z,3.00
2023-01-11T01:52:29.280Z,3.28
2023-01-11T01:54:57.851Z,2.90
2023-01-11T01:57:28.150Z,2.60
2023-01-11T01:59:56.833Z,2.50
2023-01-11T02:02:25.522Z,2.60
2023-01-11T02:04:54.716Z,2.80
2023-01-11T02:07:28.797Z,2.67
2023-01-11T02:10:10.667Z,2.83
2023-01-11T02:12:56.902Z,2.50
2023-01-11T02:15:24.562Z,2.70
2023-01-11T02:17:51.808Z,2.47
2023-01-11T02:20:22.089Z,2.60
2023-01-11T02:23:09.736Z,2.40
2023-01-11T02:25:40.051Z,2.53
2023-01-11T02:28:21.103Z,2.40
2023-01-11T02:30:48.296Z,2.33
2023-01-11T02:33:24.719Z,2.25
2023-01-11T02:36:27.527Z,2.42
2023-01-11T02:39:17.697Z,2.20
2023-01-11T02:42:22.924Z,2.40
2023-01-11T02:45:04.190Z,2.10
2023-01-11T02:47:43.832Z,2.42
2023-01-11T02:50:41.495Z,2.47
2023-01-11T02:53:14.147Z,2.88
2023-01-11T02:55:48.484Z,2.80
2023-01-11T02:58:17.276Z,2.92
2023-01-11T03:00:45.045Z,2.80
2023-01-11T03:03:19.777Z,3.13
2023-01-11T03:05:50.381Z,3.10
2023-01-11T03:08:20.626Z,2.97
2023-01-11T03:11:04.485Z,2.80
2023-01-11T03:13:41.807Z,2.78
2023-01-11T03:16:21.603Z,2.80
2023-01-11T03:18:55.008Z,3.20
2023-01-11T03:21:41.132Z,3.05
2023-01-11T03:24:11.333Z,2.70
2023-01-11T03:26:39.047Z,2.97
2023-01-11T03:29:09.305Z,3.03
2023-01-11T03:31:39.735Z,3.28
2023-01-11T03:34:13.379Z,3.00
2023-01-11T03:36:49.769Z,2.85
2023-01-11T03:39:28.293Z,2.63
2023-01-11T03:41:57.728Z,2.80
2023-01-11T03:44:26.246Z,2.38
2023-01-11T03:47:02.082Z,2.33
2023-01-11T03:49:31.886Z,2.33
2023-01-11T03:52:00.880Z,2.00
2023-01-11T03:54:28.849Z,1.98
2023-01-11T03:57:05.099Z,1.52
2023-01-11T03:59:32.677Z,1.67
2023-01-11T04:02:00.273Z,1.80
2023-01-11T04:04:27.902Z,1.30
2023-01-11T04:06:55.295Z,1.38
2023-01-11T04:09:22.966Z,1.60
2023-01-11T04:11:50.381Z,1.50
2023-01-11T04:14:17.621Z,1.65
2023-01-11T04:16:44.915Z,1.52
2023-01-11T04:19:12.215Z,1.67
2023-01-11T04:21:39.583Z,1.75
2023-01-11T04:24:07.072Z,2.17
2023-01-11T04:26:34.701Z,2.10
2023-01-11T04:29:02.078Z,2.60
2023-01-11T04:31:29.663Z,2.50
2023-01-11T04:33:57.050Z,2.70
2023-01-11T04:36:25.593Z,2.83
2023-01-11T04:38:52.866Z,3.13
2023-01-11T04:41:38.675Z,3.33
2023-01-11T04:44:05.963Z,3.05
2023-01-11T04:46:33.216Z,3.20
2023-01-11T04:49:00.634Z,3.65
2023-01-11T04:51:27.948Z,3.72
2023-01-11T04:53:55.224Z,3.70
2023-01-11T04:56:22.519Z,3.47
2023-01-11T04:58:49.762Z,3.25
2023-01-11T05:01:18.878Z,3.88
2023-01-11T05:03:46.414Z,3.50
2023-01-11T05:06:14.680Z,3.38
2023-01-11T05:08:45.595Z,3.65
2023-01-11T05:11:13.113Z,3.45
2023-01-11T05:13:43.190Z,3.38
2023-01-11T05:16:10.697Z,3.28
2023-01-11T05:18:42.206Z,3.22
2023-01-11T05:21:10.222Z,3.38
2023-01-11T05:23:37.802Z,2.83
2023-01-11T05:26:06.106Z,2.53
2023-01-11T05:28:33.781Z,2.85
2023-01-11T05:31:01.145Z,2.70
2023-01-11T05:33:28.884Z,2.60
2023-01-11T05:36:00.638Z,3.10
2023-01-11T05:38:28.282Z,2.65
2023-01-11T05:41:02.169Z,2.20
2023-01-11T05:43:29.928Z,2.30
2023-01-11T05:45:57.844Z,2.00
2023-01-11T05:48:25.585Z,2.20
2023-01-11T05:50:53.634Z,2.50
2023-01-11T05:53:21.448Z,2.28
2023-01-11T05:55:55.673Z,2.13
2023-01-11T05:58:23.606Z,2.50
2023-01-11T06:00:51.317Z,2.22
2023-01-11T06:03:18.796Z,3.00
2023-01-11T06:05:46.613Z,2.72
2023-01-11T06:08:16.670Z,2.78
2023-01-11T06:10:46.249Z,2.50
2023-01-11T06:13:28.773Z,2.60
2023-01-11T06:16:06.145Z,2.67
2023-01-11T06:18:35.357Z,2.30
2023-01-11T06:21:02.743Z,2.67
2023-01-11T06:23:31.052Z,2.55
2023-01-11T06:26:01.355Z,2.30
2023-01-11T06:28:28.588Z,2.17
2023-01-11T06:30:57.018Z,1.95
2023-01-11T06:33:25.283Z,2.15
2023-01-11T06:35:52.891Z,2.55
2023-01-11T06:38:21.941Z,2.03
2023-01-11T06:40:56.387Z,1.73
2023-01-11T06:43:23.949Z,5.90
2023-01-11T06:45:51.306Z,3.17
2023-01-11T06:48:19.351Z,2.90
2023-01-11T06:50:49.964Z,2.60
2023-01-11T06:53:17.401Z,2.15
2023-01-11T06:55:44.755Z,2.38
2023-01-11T06:58:12.130Z,2.47
2023-01-11T07:00:39.578Z,2.50
2023-01-11T07:03:07.570Z,2.35
2023-01-11T07:05:35.564Z,2.55
2023-01-11T07:08:03.339Z,2.28
2023-01-11T07:10:30.722Z,1.70
2023-01-11T07:12:58.156Z,2.10
2023-01-11T07:15:25.959Z,1.75
2023-01-11T07:17:56.643Z,2.10
2023-01-11T07:20:24.706Z,2.20
2023-01-11T07:22:52.303Z,2.05
2023-01-11T07:25:19.680Z,1.40
2023-01-11T07:27:46.902Z,1.80
2023-01-11T07:30:14.301Z,1.30
2023-01-11T07:32:41.757Z,1.85
2023-01-11T07:35:09.268Z,1.88
2023-01-11T07:37:38.144Z,2.13
2023-01-11T07:40:05.760Z,1.73
2023-01-11T07:42:51.719Z,1.75
2023-01-11T07:45:19.106Z,2.33
2023-01-11T07:47:46.413Z,1.58
2023-01-11T07:50:13.718Z,1.77
2023-01-11T07:52:49.711Z,1.85
2023-01-11T07:55:17.607Z,1.98
2023-01-11T07:57:45.068Z,1.90
2023-01-11T08:00:12.745Z,1.80
2023-01-11T08:02:40.188Z,1.85
2023-01-11T08:05:07.813Z,1.60
2023-01-11T08:07:35.147Z,1.67
2023-01-11T08:10:03.334Z,1.73
2023-01-11T08:12:51.476Z,2.22
2023-01-11T08:15:18.894Z,3.40
2023-01-11T08:17:46.142Z,2.45
2023-01-11T08:20:13.520Z,2.25
2023-01-11T08:22:40.813Z,2.28
2023-01-11T08:25:08.247Z,2.20
2023-01-11T08:27:35.659Z,1.92
2023-01-11T08:30:03.007Z,1.65
2023-01-11T08:32:30.312Z,2.28
2023-01-11T08:34:57.574Z,1.98
2023-01-11T08:37:24.845Z,2.10
2023-01-11T08:39:52.151Z,2.20
2023-01-11T08:42:19.513Z,2.00
2023-01-11T08:44:46.850Z,1.90
2023-01-11T08:47:14.096Z,1.98
2023-01-11T08:49:43.037Z,1.92
2023-01-11T08:52:14.115Z,2.05
2023-01-11T08:54:42.137Z,2.15
2023-01-11T08:57:09.706Z,2.13
2023-01-11T08:59:37.219Z,2.30
2023-01-11T09:02:05.613Z,2.08
2023-01-11T09:04:33.970Z,2.35
2023-01-11T09:07:02.038Z,2.30
2023-01-11T09:09:29.347Z,1.98
2023-01-11T09:11:57.368Z,2.65
2023-01-11T09:14:25.835Z,1.88
2023-01-11T09:16:53.903Z,2.42
2023-01-11T09:19:21.381Z,2.00
2023-01-11T09:21:48.878Z,1.88
2023-01-11T09:24:17.115Z,1.88
2023-01-11T09:26:44.465Z,2.65
2023-01-11T09:29:12.489Z,1.90
2023-01-11T09:31:40.057Z,1.90
2023-01-11T09:34:08.245Z,2.05
2023-01-11T09:36:36.851Z,2.35
2023-01-11T09:39:08.446Z,2.22
2023-01-11T09:41:38.919Z,2.25
2023-01-11T09:44:16.473Z,2.42
2023-01-11T09:46:48.027Z,2.13
2023-01-11T09:49:28.612Z,2.47
2023-01-11T09:52:05.222Z,2.00
2023-01-11T09:54:32.817Z,2.28
2023-01-11T09:57:04.581Z,2.10
2023-01-11T09:59:38.743Z,2.10
2023-01-11T10:02:19.502Z,1.80
2023-01-11T10:04:52.061Z,2.22
2023-01-11T10:07:25.789Z,2.30
2023-01-11T10:18:26.562Z,2.67
2023-01-11T10:19:38.808Z,2.90
2023-01-11T10:22:09.303Z,2.42
2023-01-11T10:24:42.752Z,2.42
2023-01-11T10:27:32.084Z,2.35
2023-01-11T10:30:13.563Z,2.50
2023-01-11T10:32:53.979Z,2.50
2023-01-11T10:35:37.376Z,2.33
2023-01-11T10:38:33.502Z,2.65
2023-01-11T10:41:22.164Z,3.03
2023-01-11T10:44:06.367Z,2.22
2023-01-11T10:46:48.271Z,2.10
2023-01-11T10:49:52.570Z,2.33
2023-01-11T10:53:00.182Z,2.20
2023-01-11T10:55:47.560Z,2.03
2023-01-11T10:58:40.150Z,2.50
2023-01-11T11:01:44.086Z,2.28
2023-01-11T11:04:46.228Z,2.13
2023-01-11T11:07:22.622Z,2.47
2023-01-11T11:10:04.096Z,2.42
2023-01-11T11:12:33.329Z,1.70
2023-01-11T11:15:09.307Z,2.10
2023-01-11T11:17:37.693Z,2.15
2023-01-11T11:20:13.395Z,2.20
2023-01-11T11:22:40.915Z,1.65
2023-01-11T11:25:14.594Z,2.17
2023-01-11T11:27:43.511Z,1.80
2023-01-11T11:30:11.857Z,1.83
2023-01-11T11:32:41.418Z,2.53
2023-01-11T11:35:28.672Z,2.53
2023-01-11T11:37:55.985Z,2.00
2023-01-11T11:40:30.924Z,1.98
2023-01-11T11:43:11.635Z,2.42
2023-01-11T11:45:50.645Z,2.22
2023-01-11T11:48:18.864Z,1.95
2023-01-11T11:50:46.907Z,2.55
2023-01-11T11:53:21.175Z,1.65
2023-01-11T11:55:48.563Z,2.28
2023-01-11T11:58:19.989Z,1.80
2023-01-11T12:00:49.560Z,1.70
2023-01-11T12:03:19.498Z,2.15
2023-01-11T12:06:07.501Z,2.00
2023-01-11T12:08:35.532Z,2.25
2023-01-11T12:11:04.315Z,2.10
2023-01-11T12:13:42.746Z,2.33
2023-01-11T12:16:21.247Z,2.20
2023-01-11T12:18:48.845Z,2.45
2023-01-11T12:21:32.343Z,2.35
2023-01-11T12:24:19.566Z,2.13
2023-01-11T12:26:47.078Z,2.40
2023-01-11T12:29:33.202Z,1.88
2023-01-11T12:32:00.509Z,1.70
2023-01-11T12:34:36.818Z,1.95
2023-01-11T12:37:11.194Z,1.98
2023-01-11T12:39:38.428Z,2.80
2023-01-11T12:42:26.445Z,1.40
2023-01-11T12:44:54.904Z,1.80
2023-01-11T12:47:49.741Z,1.98
2023-01-11T12:50:20.116Z,2.30
2023-01-11T12:52:50.634Z,1.85
2023-01-11T12:55:36.393Z,1.77
2023-01-11T12:58:16.054Z,1.90
2023-01-11T13:01:02.094Z,1.73
2023-01-11T13:03:37.492Z,1.55
2023-01-11T13:06:14.909Z,2.40
2023-01-11T13:08:46.203Z,2.38
2023-01-11T13:11:35.599Z,1.40
2023-01-11T13:14:02.964Z,1.95
2023-01-11T13:16:34.983Z,2.13
2023-01-11T13:19:07.868Z,1.60
2023-01-11T13:21:41.052Z,3.13
2023-01-11T13:24:17.392Z,1.90
2023-01-11T13:26:50.534Z,1.75
2023-01-11T13:29:18.073Z,1.45
2023-01-11T13:31:47.598Z,2.40
2023-01-11T13:34:22.856Z,2.00
2023-01-11T13:36:54.183Z,1.80
2023-01-11T13:39:21.526Z,1.67
2023-01-11T13:41:53.793Z,1.88
2023-01-11T13:44:21.041Z,1.27
2023-01-11T13:47:04.626Z,2.25
2023-01-11T13:49:34.987Z,1.73
2023-01-11T13:52:13.618Z,2.08
2023-01-11T13:54:59.768Z,1.88
2023-01-11T13:57:34.874Z,1.90
2023-01-11T14:00:05.821Z,2.00
2023-01-11T14:02:43.057Z,2.00
2023-01-11T14:05:21.416Z,1.83
2023-01-11T14:08:07.510Z,2.03
2023-01-11T14:10:47.632Z,2.15
2023-01-11T14:13:54.037Z,1.83
2023-01-11T14:16:31.817Z,2.50
2023-01-11T14:19:11.497Z,1.75
2023-01-11T14:21:50.841Z,1.67
2023-01-11T14:24:19.405Z,1.83
2023-01-11T14:26:46.762Z,1.95
2023-01-11T14:29:20.343Z,1.73
2023-01-11T14:31:48.594Z,1.95
2023-01-11T14:34:36.280Z,1.75
2023-01-11T14:37:16.035Z,2.40
2023-01-11T14:40:00.867Z,2.20
2023-01-11T14:42:35.732Z,2.00
2023-01-11T14:45:05.193Z,2.40
2023-01-11T14:47:38.644Z,2.10
2023-01-11T14:50:05.972Z,1.73
2023-01-11T14:52:39.937Z,2.28
2023-01-11T14:55:16.321Z,2.08
2023-01-11T14:57:45.269Z,2.28
2023-01-11T15:00:34.196Z,2.05
2023-01-11T15:03:01.559Z,1.90
2023-01-11T15:05:32.762Z,2.15
2023-01-11T15:08:15.657Z,2.00
2023-01-11T15:10:52.191Z,1.90
2023-01-11T15:13:24.729Z,2.00
2023-01-11T15:16:11.629Z,2.30
2023-01-11T15:18:46.208Z,2.00
2023-01-11T15:21:16.148Z,2.47
2023-01-11T15:23:58.897Z,1.83
2023-01-11T15:26:27.435Z,1.88
2023-01-11T15:29:04.728Z,2.00
2023-01-11T15:31:34.173Z,2.22
2023-01-11T15:34:03.528Z,1.73
2023-01-11T15:36:50.106Z,2.28
2023-01-11T15:39:23.095Z,1.70
2023-01-11T15:42:15.780Z,1.55
2023-01-11T15:45:01.796Z,1.80
2023-01-11T15:47:41.216Z,1.98
2023-01-11T15:50:13.826Z,2.15
2023-01-11T15:52:50.804Z,1.92
2023-01-11T15:55:30.640Z,2.28
2023-01-11T15:58:19.200Z,2.03
2023-01-11T16:03:32.634Z,2.60
2023-01-11T16:06:09.652Z,1.63
2023-01-11T16:08:46.891Z,1.60
2023-01-11T16:11:19.771Z,1.52
2023-01-11T16:13:47.165Z,2.22
2023-01-11T16:16:14.688Z,1.70
2023-01-11T16:18:44.633Z,1.95
2023-01-11T16:21:18.013Z,1.70
2023-01-11T16:23:46.668Z,2.08
2023-01-11T16:26:18.535Z,1.80
2023-01-11T16:28:53.345Z,2.83
2023-01-11T16:31:21.120Z,2.60
2023-01-11T16:33:49.826Z,2.47
2023-01-11T16:36:21.918Z,3.67
2023-01-11T16:38:56.578Z,3.13
2023-01-11T16:41:25.580Z,2.28
2023-01-11T16:44:05.399Z,2.30
2023-01-11T16:46:47.989Z,1.95
2023-01-11T16:49:17.090Z,2.60
2023-01-11T16:51:45.568Z,1.85
2023-01-11T16:54:25.143Z,1.95
2023-01-11T16:56:52.865Z,1.58
2023-01-11T16:59:26.470Z,1.58
2023-01-11T17:01:53.949Z,1.48
2023-01-11T17:04:31.713Z,1.52
2023-01-11T17:07:17.842Z,1.73
2023-01-11T17:09:45.080Z,1.70
2023-01-11T17:12:17.600Z,1.52
2023-01-11T17:14:44.919Z,1.92
2023-01-11T17:17:13.093Z,1.48
2023-01-11T17:19:45.106Z,1.70
2023-01-11T17:22:15.757Z,1.70
2023-01-11T17:24:44.751Z,1.70
2023-01-11T17:27:40.629Z,1.95
2023-01-11T17:30:18.830Z,1.63
2023-01-11T17:32:48.180Z,2.38
2023-01-11T17:37:46.939Z,1.83
2023-01-11T17:40:26.786Z,1.50
2023-01-11T17:43:14.201Z,1.67
2023-01-11T17:45:41.807Z,1.90
2023-01-11T17:48:12.530Z,2.72
2023-01-11T17:50:50.636Z,1.70
2023-01-11T17:53:22.052Z,1.95
2023-01-11T17:55:53.969Z,1.55
2023-01-11T17:58:23.610Z,1.90
2023-01-11T18:01:09.361Z,1.60
2023-01-11T18:03:44.550Z,1.55
2023-01-11T18:06:12.112Z,1.70
2023-01-11T18:08:42.177Z,2.53
2023-01-11T18:11:10.221Z,1.65
2023-01-11T18:13:40.821Z,1.55
2023-01-11T18:16:10.729Z,2.38
2023-01-11T18:18:45.893Z,1.60
2023-01-11T18:21:53.589Z,2.00
2023-01-11T18:24:47.025Z,1.83
2023-01-11T18:27:19.280Z,1.52
2023-01-11T18:29:50.388Z,1.92
2023-01-11T18:32:18.704Z,1.77
2023-01-11T18:34:48.289Z,1.90
2023-01-11T18:37:15.797Z,1.73
2023-01-11T18:39:43.086Z,1.58
2023-01-11T18:42:15.411Z,1.42
2023-01-11T18:44:45.443Z,1.27
2023-01-11T18:47:15.749Z,1.85
2023-01-11T18:49:43.321Z,1.77
2023-01-11T18:52:14.078Z,1.88
2023-01-11T18:54:42.322Z,1.80
2023-01-11T18:57:09.909Z,2.10
2023-01-11T18:59:37.339Z,2.33
2023-01-11T19:02:17.331Z,2.55
2023-01-11T19:04:45.409Z,2.83
2023-01-11T19:07:15.499Z,2.05
2023-01-11T19:09:44.967Z,2.30
2023-01-11T19:12:12.441Z,1.90
2023-01-11T19:14:40.480Z,1.80
2023-01-11T19:17:11.630Z,2.03
2023-01-11T19:19:39.005Z,2.10
2023-01-11T19:22:06.547Z,2.00
2023-01-11T19:24:33.980Z,1.98
2023-01-11T19:27:01.737Z,2.00
2023-01-11T19:29:29.264Z,1.80
2023-01-11T19:31:56.641Z,1.42
2023-01-11T19:34:24.544Z,1.80
2023-01-11T19:36:52.657Z,1.73
2023-01-11T19:39:20.053Z,1.75
2023-01-11T19:42:03.338Z,1.30
2023-01-11T19:44:32.470Z,1.63
2023-01-11T19:47:10.838Z,1.70
2023-01-11T19:49:43.331Z,1.92
2023-01-11T19:52:18.938Z,1.70
2023-01-11T19:54:46.944Z,1.33
2023-01-11T19:57:15.833Z,1.70
2023-01-11T19:59:43.215Z,1.75
2023-01-11T20:02:15.063Z,1.95
2023-01-11T20:04:42.466Z,1.75
2023-01-11T20:07:10.703Z,1.45
2023-01-11T20:09:38.072Z,1.70
2023-01-11T20:12:06.583Z,1.48
2023-01-11T20:14:34.163Z,2.08
2023-01-11T20:17:02.257Z,1.50
2023-01-11T20:19:30.189Z,1.60
2023-01-11T20:21:57.549Z,1.73
2023-01-11T20:24:30.789Z,2.13
2023-01-11T20:26:58.949Z,2.45
2023-01-11T20:29:26.664Z,2.03
2023-01-11T20:31:53.984Z,1.60
2023-01-11T20:34:24.703Z,1.73
2023-01-11T20:36:52.190Z,1.90
2023-01-11T20:39:21.607Z,1.85
2023-01-11T20:44:16.940Z,2.35
2023-01-11T20:46:47.449Z,1.77
2023-01-11T20:49:15.519Z,2.28
2023-01-11T20:51:43.189Z,1.70
2023-01-11T20:54:10.933Z,2.10
2023-01-11T20:56:38.911Z,1.98
2023-01-11T20:59:07.297Z,1.60
2023-01-11T21:01:34.935Z,2.08
2023-01-11T21:04:03.683Z,2.05
2023-01-11T21:06:32.052Z,2.08
2023-01-11T21:09:00.566Z,2.15
2023-01-11T21:11:28.716Z,2.08
2023-01-11T21:16:25.344Z,1.90
2023-01-11T21:18:57.150Z,2.83
2023-01-11T21:21:25.359Z,1.83
2023-01-11T21:24:00.301Z,1.77
2023-01-11T21:26:28.296Z,1.70
2023-01-11T21:28:59.136Z,1.77
2023-01-11T21:31:31.045Z,1.80
2023-01-11T21:33:58.873Z,1.92
2023-01-11T21:36:27.164Z,1.98
2023-01-11T21:38:55.233Z,1.40
2023-01-11T21:41:43.954Z,1.98
2023-01-11T21:44:12.211Z,1.73
2023-01-11T21:46:40.213Z,1.98
2023-01-11T21:49:07.837Z,1.73
2023-01-11T21:51:37.875Z,1.60
2023-01-11T21:54:06.455Z,2.13
2023-01-11T21:56:33.848Z,1.83
2023-01-11T21:59:01.263Z,1.55
2023-01-11T22:01:28.739Z,1.85
2023-01-11T22:03:56.174Z,2.20
2023-01-11T22:06:23.931Z,1.75
2023-01-11T22:08:51.348Z,1.50
2023-01-11T22:11:19.142Z,1.77
2023-01-11T22:13:46.532Z,2.80
2023-01-11T22:16:15.458Z,1.80
2023-01-11T22:18:43.241Z,1.90
2023-01-11T22:21:12.332Z,2.13
2023-01-11T22:23:39.637Z,1.70
2023-01-11T22:26:11.623Z,1.80
2023-01-11T22:28:57.665Z,2.00
2023-01-11T22:31:26.017Z,2.03
2023-01-11T22:33:53.340Z,1.98
2023-01-11T22:36:20.702Z,2.22
2023-01-11T22:38:48.123Z,2.20
2023-01-11T22:41:16.023Z,2.20
2023-01-11T22:43:43.987Z,1.90
2023-01-11T22:46:28.447Z,1.60
2023-01-11T22:48:58.582Z,1.90
2023-01-11T22:51:26.910Z,2.30
2023-01-11T22:56:25.605Z,2.20
2023-01-11T22:58:53.945Z,1.85
2023-01-11T23:01:21.376Z,1.63
2023-01-11T23:03:51.015Z,2.35
2023-01-11T23:06:22.439Z,2.00
2023-01-11T23:08:49.863Z,1.80
2023-01-11T23:11:37.149Z,1.75
2023-01-11T23:14:05.794Z,1.80
2023-01-11T23:16:33.644Z,2.40
2023-01-11T23:19:00.982Z,1.65
2023-01-11T23:21:28.729Z,1.85
2023-01-11T23:23:56.197Z,2.28
2023-01-11T23:26:23.670Z,1.80
2023-01-11T23:28:51.111Z,1.77
2023-01-11T23:31:19.653Z,2.13
2023-01-11T23:33:51.521Z,2.20
2023-01-11T23:36:19.445Z,1.90
2023-01-11T23:38:47.160Z,2.33
2023-01-11T23:41:34.617Z,2.13
2023-01-11T23:44:02.505Z,2.38
2023-01-11T23:46:48.381Z,2.10
2023-01-11T23:49:15.643Z,2.33
2023-01-11T23:51:43.311Z,2.10
2023-01-11T23:54:10.911Z,2.13
2023-01-11T23:56:38.382Z,2.97
2023-01-11T23:59:09.385Z,2.00
